createdAt,value
2022-12-04T00:00:15.875Z,-0.17754
2022-12-04T00:05:16.792Z,-0.20597
2022-12-04T00:10:17.810Z,-0.23439
2022-12-04T00:15:26.662Z,-0.19111
2022-12-04T00:20:28.035Z,-0.12296
2022-12-04T00:25:29.022Z,-0.09615
2022-12-04T00:30:29.913Z,-0.10778
2022-12-04T00:35:30.831Z,-0.17819
2022-12-04T00:40:31.803Z,-0.15816
2022-12-04T00:45:32.934Z,-0.16947
2022-12-04T00:50:33.891Z,-0.22761
2022-12-04T00:55:34.885Z,-0.15978
2022-12-04T01:00:35.864Z,-0.10584
2022-12-04T01:05:36.847Z,-0.10325
2022-12-04T01:10:37.803Z,-0.16301
2022-12-04T01:15:38.767Z,-0.21469
2022-12-04T01:20:39.666Z,-0.13781
2022-12-04T01:25:40.591Z,-0.11133
2022-12-04T01:30:41.474Z,-0.05545
2022-12-04T01:35:42.412Z,-0.04576
2022-12-04T01:40:43.372Z,-0.00829
2022-12-04T01:45:44.691Z,-0.03671
2022-12-04T01:50:45.687Z,-0.13458
2022-12-04T01:55:46.604Z,-0.1685
2022-12-04T02:00:51.024Z,-0.07257
2022-12-04T02:05:52.714Z,-0.06449
2022-12-04T02:10:53.594Z,-0.06869
2022-12-04T02:15:54.499Z,-0.06417
2022-12-04T02:20:55.451Z,-0.07321
2022-12-04T02:25:56.434Z,-0.04963
2022-12-04T02:30:57.525Z,-0.13523
2022-12-04T02:35:58.494Z,-0.24602
2022-12-04T02:40:59.385Z,-0.22115
2022-12-04T02:46:00.379Z,-0.21921
2022-12-04T02:51:01.583Z,-0.34292
2022-12-04T02:56:02.537Z,-0.3623
2022-12-04T03:01:03.571Z,-0.35197
2022-12-04T03:06:04.539Z,-0.33808
2022-12-04T03:11:05.504Z,-0.37716
2022-12-04T03:16:06.502Z,-0.34163
2022-12-04T03:21:07.552Z,-0.29286
2022-12-04T03:26:08.451Z,-0.25668
2022-12-04T03:31:09.482Z,-0.26637
2022-12-04T03:36:10.411Z,-0.16818
2022-12-04T03:41:11.287Z,-0.20823
2022-12-04T03:46:12.357Z,-0.24764
2022-12-04T03:51:13.324Z,-0.19402
2022-12-04T03:56:14.284Z,-0.13975
2022-12-04T04:01:15.303Z,-0.17302
2022-12-04T04:06:16.367Z,-0.18497
2022-12-04T04:11:17.407Z,-0.15074
2022-12-04T04:16:18.394Z,-0.19919
2022-12-04T04:21:19.395Z,-0.15752
2022-12-04T04:26:20.319Z,-0.01701
2022-12-04T04:31:21.411Z,0.09475
2022-12-04T04:36:22.377Z,0.19359
2022-12-04T04:41:23.274Z,0.22847
2022-12-04T04:46:24.209Z,0.24042
2022-12-04T04:51:25.203Z,0.20037
2022-12-04T04:56:26.112Z,0.16936
2022-12-04T05:01:27.212Z,0.2246
2022-12-04T05:06:28.191Z,0.22686
2022-12-04T05:11:29.103Z,0.09701
2022-12-04T05:16:30.186Z,0.02498
2022-12-04T05:21:31.149Z,0.11348
2022-12-04T05:26:32.096Z,0.09281
2022-12-04T05:31:33.137Z,0.03628
2022-12-04T05:36:34.141Z,-0.07321
2022-12-04T05:41:35.115Z,-0.00022
2022-12-04T05:46:36.118Z,0.0618
2022-12-04T05:51:37.172Z,0.05954
2022-12-04T05:56:38.084Z,0.14675
2022-12-04T06:01:39.026Z,0.16516
2022-12-04T06:06:40.023Z,0.15418
2022-12-04T06:11:40.949Z,0.10993
2022-12-04T06:16:41.979Z,0.17744
2022-12-04T06:21:42.970Z,0.26788
2022-12-04T06:27:03.900Z,0.16613
2022-12-04T06:32:16.462Z,0.10961
2022-12-04T06:37:22.115Z,0.07892
2022-12-04T06:42:23.077Z,0.0941
2022-12-04T06:47:24.129Z,0.17873
2022-12-04T06:52:25.082Z,0.26077
2022-12-04T06:57:26.092Z,0.32247
2022-12-04T07:02:27.106Z,0.21717
2022-12-04T07:07:28.149Z,0.22524
2022-12-04T07:12:29.134Z,0.23041
2022-12-04T07:17:30.230Z,0.18196
2022-12-04T07:22:31.180Z,0.21071
2022-12-04T07:27:32.198Z,0.13577
2022-12-04T07:32:33.201Z,0.17582
2022-12-04T07:37:34.189Z,0.2191
2022-12-04T07:42:35.175Z,0.27854
2022-12-04T07:47:36.064Z,0.36575
2022-12-04T07:52:36.970Z,0.35638
2022-12-04T07:57:37.879Z,0.32796
2022-12-04T08:02:38.902Z,0.41162
2022-12-04T08:07:39.868Z,0.47428
2022-12-04T08:12:40.785Z,0.54082
2022-12-04T08:17:41.682Z,0.4998
2022-12-04T08:22:42.656Z,0.45005
2022-12-04T08:27:47.347Z,0.49366
2022-12-04T08:32:48.727Z,0.52144
2022-12-04T08:37:49.681Z,0.51756
2022-12-04T08:42:50.568Z,0.59896
2022-12-04T08:47:52.687Z,0.55406
2022-12-04T08:52:54.219Z,0.59767
2022-12-04T08:57:55.358Z,0.67551
2022-12-04T09:02:56.284Z,0.68779
2022-12-04T09:07:57.253Z,0.63643
2022-12-04T09:12:58.198Z,0.78566
2022-12-04T09:17:59.118Z,0.94393
2022-12-04T09:23:04.787Z,0.92164
2022-12-04T09:28:06.104Z,0.93521
2022-12-04T09:33:07.000Z,0.85801
2022-12-04T09:38:07.901Z,0.80536
2022-12-04T09:43:08.818Z,0.85575
2022-12-04T09:48:09.750Z,0.71427
2022-12-04T09:53:10.639Z,0.66259
2022-12-04T09:58:11.473Z,0.79632
2022-12-04T10:03:12.546Z,0.86382
2022-12-04T10:08:13.630Z,0.91777
2022-12-04T10:13:14.561Z,0.92649
2022-12-04T10:18:15.522Z,0.8958
2022-12-04T10:23:16.526Z,0.81214
2022-12-04T10:28:17.511Z,0.85446
2022-12-04T10:33:18.498Z,0.81763
2022-12-04T10:38:19.450Z,0.77306
2022-12-04T10:43:20.499Z,0.94102
2022-12-04T10:48:21.460Z,0.98657
2022-12-04T10:53:22.369Z,1.05795
2022-12-04T10:58:23.259Z,1.04858
2022-12-04T11:03:24.283Z,1.07733
2022-12-04T11:08:25.257Z,1.0334
2022-12-04T11:13:26.317Z,1.11157
2022-12-04T11:18:27.220Z,1.15259
2022-12-04T11:23:28.161Z,1.18263
2022-12-04T11:28:41.245Z,1.23399
2022-12-04T11:33:43.276Z,1.27404
2022-12-04T11:38:44.267Z,1.26597
2022-12-04T11:43:45.615Z,1.15615
2022-12-04T11:48:46.623Z,1.14904
2022-12-04T11:53:47.565Z,1.2285
2022-12-04T11:58:48.478Z,1.1471
2022-12-04T12:03:49.398Z,1.09251
2022-12-04T12:08:50.336Z,1.11642
2022-12-04T12:13:51.266Z,1.22818
2022-12-04T12:18:52.201Z,1.23496
2022-12-04T12:23:53.098Z,1.15679
2022-12-04T12:28:53.994Z,1.09865
2022-12-04T12:33:54.953Z,1.16293
2022-12-04T12:38:55.850Z,1.1429
2022-12-04T12:43:56.777Z,1.15938
2022-12-04T12:48:58.673Z,1.16519
2022-12-04T12:53:59.740Z,1.21655
2022-12-04T12:59:00.636Z,1.24562
2022-12-04T13:04:01.554Z,1.28826
2022-12-04T13:09:02.555Z,1.31377
2022-12-04T13:14:03.469Z,1.42101
2022-12-04T13:19:04.356Z,1.4152
2022-12-04T13:24:05.276Z,1.4152
2022-12-04T13:29:06.191Z,1.31991
2022-12-04T13:34:07.110Z,1.29698
2022-12-04T13:39:08.026Z,1.30861
2022-12-04T13:44:08.946Z,1.37062
2022-12-04T13:49:09.868Z,1.30376
2022-12-04T13:54:10.790Z,1.33251
2022-12-04T13:59:11.667Z,1.33832
2022-12-04T14:04:12.541Z,1.37159
2022-12-04T14:09:13.447Z,1.24723
2022-12-04T14:14:14.398Z,1.18489
2022-12-04T14:19:15.295Z,1.13224
2022-12-04T14:24:16.191Z,1.11932
2022-12-04T14:29:17.070Z,1.24433
2022-12-04T14:34:18.010Z,1.28244
2022-12-04T14:39:18.901Z,1.23593
2022-12-04T14:44:19.805Z,1.11189
2022-12-04T14:49:20.699Z,1.08605
2022-12-04T14:54:21.563Z,1.09381
2022-12-04T14:59:22.467Z,1.10705
2022-12-04T15:04:23.557Z,1.14646
2022-12-04T15:09:24.499Z,1.06635
2022-12-04T15:14:25.376Z,1.07927
2022-12-04T15:19:26.341Z,1.1597
2022-12-04T15:24:27.267Z,1.25402
2022-12-04T15:29:28.191Z,1.36998
2022-12-04T15:34:29.172Z,1.51307
2022-12-04T15:39:30.095Z,1.52922
2022-12-04T15:44:30.999Z,1.58478
2022-12-04T15:49:31.924Z,1.56023
2022-12-04T15:54:32.856Z,1.57864
2022-12-04T15:59:33.831Z,1.58995
2022-12-04T16:04:35.012Z,1.59285
2022-12-04T16:09:35.992Z,1.70429
2022-12-04T16:14:36.980Z,1.72981
2022-12-04T16:19:37.884Z,1.651
2022-12-04T16:24:39.192Z,1.7844
2022-12-04T16:29:40.101Z,1.78569
2022-12-04T16:34:41.086Z,1.80798
2022-12-04T16:39:42.021Z,1.83124
2022-12-04T16:44:42.921Z,1.90165
2022-12-04T16:49:43.826Z,1.85062
2022-12-04T16:54:44.744Z,1.83963
2022-12-04T16:59:46.015Z,1.89584
2022-12-04T17:04:47.011Z,1.8209
2022-12-04T17:09:47.942Z,1.87743
2022-12-04T17:14:48.864Z,1.83414
2022-12-04T17:19:49.757Z,1.77632
2022-12-04T17:24:55.927Z,1.89745
2022-12-04T17:29:57.267Z,1.9472
2022-12-04T17:34:58.653Z,1.9711
2022-12-04T17:39:59.808Z,1.9388
2022-12-04T17:45:00.674Z,2.00954
2022-12-04T17:50:01.625Z,1.96206
2022-12-04T17:55:02.532Z,1.86871
2022-12-04T18:00:03.472Z,1.77245
2022-12-04T18:05:04.481Z,1.92039
2022-12-04T18:10:05.418Z,2.04248
2022-12-04T18:15:06.341Z,2.09191
2022-12-04T18:20:07.539Z,2.0273
2022-12-04T18:25:08.664Z,2.12388
2022-12-04T18:30:09.631Z,2.08189
2022-12-04T18:35:10.601Z,1.99371
2022-12-04T18:40:11.525Z,2.03053
2022-12-04T18:45:12.483Z,2.09966
2022-12-04T18:50:13.349Z,2.06833
2022-12-04T18:55:14.237Z,2.13261
2022-12-04T19:00:15.114Z,2.08028
2022-12-04T19:05:15.983Z,2.09126
2022-12-04T19:10:16.891Z,2.0076
2022-12-04T19:15:17.779Z,2.0315
2022-12-04T19:20:18.702Z,2.14553
2022-12-04T19:25:19.651Z,2.19592
2022-12-04T19:30:20.557Z,2.2925
2022-12-04T19:35:26.511Z,2.30929
2022-12-04T19:40:27.465Z,2.29766
2022-12-04T19:45:28.520Z,2.31866
2022-12-04T19:50:29.580Z,2.38875
2022-12-04T19:55:30.505Z,2.37842
2022-12-04T20:00:31.443Z,2.42235
2022-12-04T20:05:32.368Z,2.42784
2022-12-04T20:10:33.330Z,2.39651
2022-12-04T20:15:34.516Z,2.38132
2022-12-04T20:20:35.483Z,2.30186
2022-12-04T20:25:36.433Z,2.30445
2022-12-04T20:30:37.510Z,2.24211
2022-12-04T20:35:38.560Z,2.31252
2022-12-04T20:40:39.494Z,2.42299
2022-12-04T20:45:40.578Z,2.39424
2022-12-04T20:50:41.535Z,2.41718
2022-12-04T20:55:42.522Z,2.51053
2022-12-04T21:00:43.471Z,2.59516
2022-12-04T21:05:44.437Z,2.43753
2022-12-04T21:10:45.374Z,2.46498
2022-12-04T21:15:46.866Z,2.4175
2022-12-04T21:20:47.776Z,2.4259
2022-12-04T21:25:48.711Z,2.3684
2022-12-04T21:30:50.063Z,2.31123
2022-12-04T21:35:51.115Z,2.4624
2022-12-04T21:40:52.074Z,2.39877
2022-12-04T21:45:53.108Z,2.47144
2022-12-04T21:50:54.114Z,2.44367
2022-12-04T21:55:55.044Z,2.39295
2022-12-04T22:00:55.960Z,2.39231
2022-12-04T22:05:56.893Z,2.36388
2022-12-04T22:10:57.809Z,2.3726
2022-12-04T22:15:58.874Z,2.41847
2022-12-04T22:20:59.870Z,2.36614
2022-12-04T22:26:00.836Z,2.37971
2022-12-04T22:31:01.811Z,2.28345
2022-12-04T22:36:02.870Z,2.27408
2022-12-04T22:41:03.802Z,2.26569
2022-12-04T22:46:04.841Z,2.32447
2022-12-04T22:51:06.122Z,2.3445
2022-12-04T22:56:07.038Z,2.42105
2022-12-04T23:01:07.926Z,2.4385
2022-12-04T23:06:08.923Z,2.41492
2022-12-04T23:11:09.819Z,2.3852
2022-12-04T23:16:13.263Z,2.39328
2022-12-04T23:21:17.833Z,2.40297
2022-12-04T23:26:18.764Z,2.33223
2022-12-04T23:31:19.961Z,2.3655
2022-12-04T23:36:21.033Z,2.30477
2022-12-04T23:41:22.174Z,2.37939
2022-12-04T23:46:23.287Z,2.39586
2022-12-04T23:51:24.276Z,2.4091
2022-12-04T23:56:25.210Z,2.46272
